.
WxDataArchive / Data Records for 2012-02-19
2012-02-18 February 2012 2012-02-20

Data Records for Sunday, 19 February 2012

Time	Temp	Chill	HIndex	Humid	Dewpt	 Wind 	HiWind	WindDir	Rain 	Barom 
-----	----	-----	------	-----	-----	------	------	-------	-----	----- 
00:00	24.1	24.1	24.1	74	17.0	0	0	---	0.00	30.199 
00:05	24.1	24.1	24.1	74	17.0	0	0	---	0.00	30.199 
00:10	23.9	23.9	23.9	74	16.8	0	0	---	0.00	30.199 
00:15	23.9	23.9	23.9	75	17.2	0	0	---	0.00	30.198 
00:20	23.9	23.9	23.9	75	17.2	0	0	---	0.00	30.198 
00:25	23.8	23.8	23.8	75	17.1	0	0	---	0.00	30.198 
00:30	23.8	23.8	23.8	75	17.1	0	0	---	0.00	30.201 
00:35	23.6	23.6	23.6	75	16.9	0	0	---	0.00	30.201 
00:40	23.6	23.6	23.6	75	16.9	0	0	---	0.00	30.201 
00:45	23.5	23.5	23.5	76	17.1	0	0	---	0.00	30.205 
00:50	23.3	23.3	23.3	76	16.9	0	0	---	0.00	30.205 
00:55	23.2	23.2	23.2	76	16.8	0	0	---	0.00	30.205 
01:00	23.0	23.0	23.0	76	16.6	0	0	---	0.00	30.210 
01:05	22.9	22.9	22.9	77	16.8	0	0	---	0.00	30.210 
01:10	22.7	22.7	22.7	77	16.6	0	0	---	0.00	30.210 
01:15	22.4	22.4	22.4	77	16.3	0	0	---	0.00	30.213 
01:20	22.2	22.2	22.2	78	16.4	0	0	---	0.00	30.213 
01:25	22.1	22.1	22.1	78	16.3	0	0	---	0.00	30.213 
01:30	21.9	21.9	21.9	78	16.1	0	0	---	0.00	30.206 
01:35	21.8	21.8	21.8	79	16.3	0	0	---	0.00	30.206 
01:40	21.8	21.8	21.8	79	16.3	0	0	---	0.00	30.206 
01:45	21.6	21.6	21.6	79	16.1	0	0	---	0.00	30.207 
01:50	21.4	21.4	21.4	80	16.2	0	0	---	0.00	30.207 
01:55	21.4	21.4	21.4	80	16.2	0	0	---	0.00	30.207 
02:00	21.3	21.3	21.3	80	16.1	0	0	---	0.00	30.204 
02:05	21.1	21.1	21.1	80	15.9	0	0	---	0.00	30.204 
02:10	21.0	21.0	21.0	81	16.1	0	0	---	0.00	30.204 
02:15	21.0	21.0	21.0	81	16.1	0	0	---	0.00	30.203 
02:20	20.8	20.8	20.8	81	15.9	0	0	---	0.00	30.203 
02:25	20.8	20.8	20.8	81	15.9	0	0	---	0.00	30.203 
02:30	20.8	20.8	20.8	81	15.9	0	0	---	0.00	30.196 
02:35	20.6	20.6	20.6	82	16.0	0	0	---	0.00	30.196 
02:40	20.6	20.6	20.6	82	16.0	0	0	---	0.00	30.196 
02:45	20.6	20.6	20.6	82	16.0	0	0	---	0.00	30.192 
02:50	20.6	20.6	20.6	82	16.0	0	0	---	0.00	30.192 
02:55	20.8	20.8	20.8	83	16.5	0	0	---	0.00	30.192 
03:00	20.8	20.8	20.8	83	16.5	0	0	---	0.00	30.189 
03:05	20.8	20.8	20.8	83	16.5	0	0	---	0.00	30.189 
03:10	21.0	21.0	21.0	83	16.7	0	0	---	0.00	30.189 
03:15	20.8	20.8	20.8	83	16.5	0	0	---	0.00	30.188 
03:20	20.8	20.8	20.8	83	16.5	0	0	---	0.00	30.188 
03:25	20.6	20.6	20.6	83	16.3	0	0	---	0.00	30.188 
03:30	20.6	20.6	20.6	83	16.3	0	0	---	0.00	30.186 
03:35	20.5	20.5	20.5	83	16.2	0	0	---	0.00	30.186 
03:40	20.5	20.5	20.5	83	16.2	0	0	---	0.00	30.186 
03:45	20.3	20.3	20.3	83	16.0	0	0	---	0.00	30.177 
03:50	20.3	20.3	20.3	84	16.3	0	0	---	0.00	30.177 
03:55	20.3	20.3	20.3	84	16.3	0	0	---	0.00	30.177 
04:00	20.5	20.5	20.5	84	16.4	0	0	---	0.00	30.171 
04:05	20.6	20.6	20.6	84	16.5	0	0	---	0.00	30.171 
04:10	20.6	20.6	20.6	84	16.5	0	0	---	0.00	30.171 
04:15	21.0	21.0	21.0	84	16.9	0	1	0	0.00	30.169 
04:20	21.1	21.1	21.1	84	17.0	0	0	---	0.00	30.169 
04:25	21.1	21.1	21.1	84	17.0	0	1	0	0.00	30.169 
04:30	21.4	21.4	21.4	84	17.3	0	2	0	0.00	30.167 
04:35	21.8	21.8	21.8	83	17.4	0	1	0	0.00	30.167 
04:40	22.1	22.1	22.1	83	17.7	0	0	---	0.00	30.167 
04:45	22.2	22.2	22.2	82	17.6	0	2	0	0.00	30.165 
04:50	22.4	22.4	22.4	81	17.5	0	0	---	0.00	30.165 
04:55	22.4	22.4	22.4	81	17.5	0	1	0	0.00	30.165 
05:00	22.4	22.4	22.4	81	17.5	0	1	0	0.00	30.166 
05:05	22.5	22.5	22.5	80	17.3	0	3	0	0.00	30.166 
05:10	22.5	22.5	22.5	80	17.3	0	3	135	0.00	30.166 
05:15	22.5	22.5	22.5	80	17.3	0	1	135	0.00	30.164 
05:20	22.5	22.5	22.5	79	17.0	0	2	135	0.00	30.164 
05:25	22.7	22.7	22.7	79	17.2	0	1	135	0.00	30.164 
05:30	22.5	22.5	22.5	79	17.0	0	1	135	0.00	30.162 
05:35	22.5	22.5	22.5	79	17.0	0	1	135	0.00	30.162 
05:40	22.5	22.5	22.5	79	17.0	0	1	135	0.00	30.162 
05:45	22.5	22.5	22.5	79	17.0	0	0	---	0.00	30.163 
05:50	22.4	22.4	22.4	79	16.9	0	0	---	0.00	30.163 
05:55	22.4	22.4	22.4	79	16.9	0	1	135	0.00	30.163 
06:00	22.2	22.2	22.2	79	16.7	0	0	---	0.00	30.171 
06:05	22.2	22.2	22.2	79	16.7	0	1	135	0.00	30.171 
06:10	22.2	22.2	22.2	79	16.7	0	0	---	0.00	30.171 
06:15	22.1	22.1	22.1	79	16.6	0	1	135	0.00	30.175 
06:20	22.1	22.1	22.1	79	16.6	0	1	135	0.00	30.175 
06:25	22.1	22.1	22.1	79	16.6	0	0	---	0.00	30.175 
06:30	22.1	22.1	22.1	79	16.6	0	1	135	0.00	30.177 
06:35	22.2	22.2	22.2	79	16.7	0	1	135	0.00	30.177 
06:40	22.2	22.2	22.2	79	16.7	0	1	135	0.00	30.177 
06:45	22.2	22.2	22.2	79	16.7	0	2	135	0.00	30.175 
06:50	22.2	22.2	22.2	79	16.7	0	1	135	0.00	30.175 
06:55	22.2	22.2	22.2	79	16.7	0	2	135	0.00	30.175 
07:00	22.2	22.2	22.2	79	16.7	0	1	135	0.00	30.174 
07:05	22.2	22.2	22.2	79	16.7	0	1	135	0.00	30.174 
07:10	22.2	22.2	22.2	79	16.7	0	3	135	0.00	30.174 
07:15	22.2	22.2	22.2	79	16.7	0	1	135	0.00	30.177 
07:20	22.2	22.2	22.2	79	16.7	0	1	135	0.00	30.177 
07:25	22.2	22.2	22.2	79	16.7	0	1	135	0.00	30.177 
07:30	22.2	22.2	22.2	79	16.7	0	1	135	0.00	30.177 
07:35	22.2	22.2	22.2	79	16.7	0	2	135	0.00	30.177 
07:40	22.4	22.4	22.4	79	16.9	0	2	135	0.00	30.177 
07:45	22.4	22.4	22.4	79	16.9	0	2	135	0.00	30.174 
07:50	22.5	22.5	22.5	79	17.0	0	2	135	0.00	30.174 
07:55	22.7	22.7	22.7	79	17.2	0	2	135	0.00	30.174 
08:00	22.9	22.9	22.9	78	17.1	0	2	22	0.00	30.176 
08:05	23.0	23.0	23.0	78	17.2	0	2	68	0.00	30.176 
08:10	23.2	23.2	23.2	78	17.4	0	3	45	0.00	30.176 
08:15	23.5	23.5	23.5	78	17.7	0	2	45	0.00	30.185 
08:20	23.8	23.8	23.8	77	17.7	0	2	0	0.00	30.185 
08:25	24.2	24.2	24.2	77	18.1	1	5	112	0.00	30.185 
08:30	24.7	24.7	24.7	76	18.2	1	4	112	0.00	30.193 
08:35	25.1	25.1	25.1	75	18.3	1	3	112	0.00	30.193 
08:40	25.4	25.4	25.4	74	18.3	1	6	112	0.00	30.193 
08:45	25.6	25.6	25.6	75	18.8	1	3	135	0.00	30.193 
08:50	25.8	25.8	25.8	73	18.4	2	7	90	0.00	30.193 
08:55	26.0	26.0	26.0	73	18.6	1	5	135	0.00	30.193 
09:00	26.1	26.1	26.1	73	18.7	2	6	112	0.00	30.197 
09:05	26.1	26.1	26.1	73	18.7	2	6	112	0.00	30.197 
09:10	26.3	26.3	26.3	73	18.8	2	10	90	0.00	30.197 
09:15	26.3	26.3	26.3	73	18.8	2	5	112	0.00	30.204 
09:20	26.4	26.4	26.4	73	18.9	2	6	112	0.00	30.204 
09:25	26.4	26.4	26.4	73	18.9	2	5	112	0.00	30.204 
09:30	26.6	26.6	26.6	73	19.1	2	6	90	0.00	30.210 
09:35	26.6	26.6	26.6	73	19.1	2	6	90	0.00	30.210 
09:40	26.7	26.7	26.7	73	19.2	3	6	112	0.00	30.210 
09:45	26.7	26.7	26.7	72	18.9	2	4	112	0.00	30.210 
09:50	27.0	27.0	27.0	73	19.5	2	6	112	0.00	30.210 
09:55	27.5	27.5	27.5	73	20.0	1	4	90	0.00	30.210 
10:00	27.6	27.6	27.6	72	19.8	2	7	112	0.00	30.206 
10:05	27.9	27.9	27.9	72	20.1	2	5	90	0.00	30.206 
10:10	28.2	28.2	28.2	71	20.0	2	6	112	0.00	30.206 
10:15	28.2	28.2	28.2	71	20.0	3	6	90	0.00	30.206 
10:20	28.4	28.4	28.4	70	19.9	2	7	112	0.00	30.206 
10:25	28.5	28.5	28.5	71	20.3	1	4	112	0.00	30.206 
10:30	28.7	28.7	28.7	71	20.5	2	5	112	0.00	30.205 
10:35	28.8	28.8	28.8	70	20.3	3	7	112	0.00	30.205 
10:40	28.7	24.3	28.7	69	19.8	4	7	112	0.00	30.205 
10:45	28.8	28.8	28.8	70	20.3	2	10	112	0.00	30.202 
10:50	29.0	29.0	29.0	70	20.5	2	6	90	0.00	30.202 
10:55	29.3	29.3	29.3	69	20.4	2	5	90	0.00	30.202 
11:00	29.3	29.3	29.3	69	20.4	3	6	112	0.00	30.199 
11:05	29.3	29.3	29.3	68	20.1	3	7	112	0.00	30.199 
11:10	29.4	29.4	29.4	68	20.2	2	5	90	0.00	30.199 
11:15	29.5	29.5	29.5	68	20.3	1	5	68	0.00	30.194 
11:20	29.5	29.5	29.5	68	20.3	2	10	112	0.00	30.194 
11:25	29.7	29.7	29.7	68	20.5	2	5	90	0.00	30.194 
11:30	30.0	30.0	30.0	68	20.7	3	7	90	0.00	30.193 
11:35	30.0	30.0	30.0	68	20.7	1	4	90	0.00	30.193 
11:40	30.1	30.1	30.1	66	20.1	3	9	112	0.00	30.193 
11:45	30.1	30.1	30.1	67	20.5	2	5	45	0.00	30.191 
11:50	30.3	30.3	30.3	67	20.7	2	5	112	0.00	30.191 
11:55	30.3	30.3	30.3	67	20.7	2	6	90	0.00	30.191 
12:00	30.4	30.4	30.4	66	20.4	2	7	90	0.00	30.189 
12:05	30.6	30.6	30.6	66	20.6	1	6	90	0.00	30.189 
12:10	30.9	30.9	30.9	65	20.5	1	5	45	0.00	30.189 
12:15	31.0	31.0	31.0	64	20.3	2	7	45	0.00	30.188 
12:20	30.9	30.9	30.9	65	20.5	2	8	112	0.00	30.188 
12:25	31.0	31.0	31.0	63	19.9	2	6	135	0.00	30.188 
12:30	31.0	31.0	31.0	64	20.3	2	5	90	0.00	30.175 
12:35	31.3	31.3	31.3	65	20.9	1	2	90	0.00	30.175 
12:40	31.6	31.6	31.6	62	20.1	1	4	22	0.00	30.175 
12:45	31.8	31.8	31.8	64	21.0	1	6	45	0.00	30.171 
12:50	31.8	31.8	31.8	62	20.3	1	5	22	0.00	30.171 
12:55	31.8	31.8	31.8	62	20.3	1	6	22	0.00	30.171 
13:00	31.9	31.9	31.9	61	20.0	1	5	68	0.00	30.169 
13:05	32.1	32.1	32.1	62	20.6	1	4	45	0.00	30.169 
13:10	32.2	32.2	32.2	61	20.3	1	7	90	0.00	30.169 
13:15	32.4	32.4	32.4	61	20.5	2	10	22	0.00	30.164 
13:20	32.5	32.5	32.5	61	20.6	2	9	112	0.00	30.164 
13:25	32.7	32.7	32.7	60	20.4	1	6	112	0.00	30.164 
13:30	32.7	32.7	32.7	61	20.8	1	5	112	0.00	30.162 
13:35	32.8	32.8	32.8	59	20.1	1	6	90	0.00	30.162 
13:40	33.1	33.1	33.1	59	20.4	1	4	270	0.00	30.162 
13:45	33.2	33.2	33.2	58	20.0	1	3	90	0.00	30.161 
13:50	33.7	33.7	33.7	58	20.5	1	5	90	0.00	30.161 
13:55	33.8	33.8	33.8	58	20.6	1	4	112	0.00	30.161 
14:00	34.0	34.0	34.0	58	20.8	1	7	22	0.00	30.160 
14:05	34.0	34.0	34.0	58	20.8	1	4	315	0.00	30.160 
14:10	34.0	34.0	34.0	56	20.0	1	4	338	0.00	30.160 
14:15	34.0	34.0	34.0	56	20.0	0	2	90	0.00	30.157 
14:20	34.0	34.0	34.0	56	20.0	1	4	90	0.00	30.157 
14:25	33.8	33.8	33.8	56	19.8	1	4	90	0.00	30.157 
14:30	33.8	33.8	33.8	55	19.4	2	7	112	0.00	30.151 
14:35	34.0	34.0	34.0	55	19.6	2	11	90	0.00	30.151 
14:40	34.1	34.1	34.1	57	20.5	2	7	112	0.00	30.151 
14:45	34.1	34.1	34.1	55	19.6	1	5	112	0.00	30.144 
14:50	34.0	34.0	34.0	54	19.1	2	7	68	0.00	30.144 
14:55	34.0	34.0	34.0	56	20.0	2	5	45	0.00	30.144 
15:00	33.8	33.8	33.8	56	19.8	2	6	112	0.00	30.135 
15:05	33.8	33.8	33.8	56	19.8	1	7	112	0.00	30.135 
15:10	34.0	34.0	34.0	56	20.0	1	5	338	0.00	30.135 
15:15	34.1	34.1	34.1	55	19.6	1	3	0	0.00	30.131 
15:20	34.3	34.3	34.3	55	19.8	2	4	112	0.00	30.131 
15:25	34.4	34.4	34.4	54	19.5	1	5	45	0.00	30.131 
15:30	34.6	34.6	34.6	54	19.7	1	6	68	0.00	30.128 
15:35	34.6	34.6	34.6	53	19.2	2	5	112	0.00	30.128 
15:40	34.4	34.4	34.4	54	19.5	2	7	68	0.00	30.128 
15:45	34.4	34.4	34.4	53	19.1	1	5	158	0.00	30.129 
15:50	34.3	34.3	34.3	54	19.4	2	6	90	0.00	30.129 
15:55	34.3	34.3	34.3	54	19.4	2	5	112	0.00	30.129 
16:00	34.1	34.1	34.1	55	19.6	2	7	135	0.00	30.129 
16:05	34.1	34.1	34.1	53	18.8	2	7	0	0.00	30.129 
16:10	34.0	34.0	34.0	53	18.7	1	5	22	0.00	30.129 
16:15	34.0	34.0	34.0	54	19.1	1	5	112	0.00	30.125 
16:20	34.1	34.1	34.1	54	19.2	1	5	0	0.00	30.125 
16:25	34.1	34.1	34.1	54	19.2	1	5	112	0.00	30.125 
16:30	34.0	34.0	34.0	54	19.1	2	7	135	0.00	30.125 
16:35	34.0	34.0	34.0	55	19.6	1	5	45	0.00	30.125 
16:40	34.0	34.0	34.0	54	19.1	1	2	112	0.00	30.125 
16:45	33.8	33.8	33.8	54	18.9	2	6	90	0.00	30.125 
16:50	33.7	33.7	33.7	54	18.8	2	5	90	0.00	30.125 
16:55	33.5	33.5	33.5	54	18.7	1	6	68	0.00	30.125 
17:00	33.5	33.5	33.5	55	19.1	1	3	135	0.00	30.128 
17:05	33.5	33.5	33.5	55	19.1	1	4	112	0.00	30.128 
17:10	33.5	33.5	33.5	54	18.7	1	5	112	0.00	30.128 
17:15	33.4	33.4	33.4	54	18.6	1	3	45	0.00	30.133 
17:20	33.2	33.2	33.2	54	18.4	2	5	112	0.00	30.133 
17:25	33.1	33.1	33.1	55	18.7	0	2	68	0.00	30.133 
17:30	33.1	33.1	33.1	56	19.1	2	5	22	0.00	30.132 
17:35	33.1	33.1	33.1	56	19.1	2	4	90	0.00	30.132 
17:40	32.9	32.9	32.9	57	19.4	1	3	112	0.00	30.132 
17:45	32.9	32.9	32.9	57	19.4	1	5	112	0.00	30.138 
17:50	32.9	32.9	32.9	57	19.4	1	3	90	0.00	30.138 
17:55	32.8	32.8	32.8	57	19.3	1	3	90	0.00	30.138 
18:00	32.7	32.7	32.7	58	19.6	1	3	90	0.00	30.143 
18:05	32.5	32.5	32.5	58	19.4	0	3	90	0.00	30.143 
18:10	32.4	32.4	32.4	59	19.7	0	2	90	0.00	30.143 
18:15	32.2	32.2	32.2	59	19.5	0	3	45	0.00	30.147 
18:20	32.1	32.1	32.1	59	19.4	0	2	45	0.00	30.147 
18:25	31.9	31.9	31.9	59	19.2	0	3	45	0.00	30.147 
18:30	31.8	31.8	31.8	60	19.5	0	2	68	0.00	30.151 
18:35	31.6	31.6	31.6	60	19.3	0	1	68	0.00	30.151 
18:40	31.5	31.5	31.5	61	19.6	0	1	68	0.00	30.151 
18:45	31.3	31.3	31.3	62	19.8	0	0	---	0.00	30.158 
18:50	31.0	31.0	31.0	62	19.5	0	1	68	0.00	30.158 
18:55	30.7	30.7	30.7	63	19.6	0	1	68	0.00	30.158 
19:00	30.6	30.6	30.6	63	19.5	0	1	68	0.00	30.162 
19:05	30.3	30.3	30.3	64	19.6	0	0	---	0.00	30.162 
19:10	30.1	30.1	30.1	64	19.4	0	0	---	0.00	30.162 
19:15	29.8	29.8	29.8	64	19.1	0	0	---	0.00	30.164 
19:20	29.5	29.5	29.5	65	19.2	0	0	---	0.00	30.164 
19:25	29.3	29.3	29.3	67	19.7	0	0	---	0.00	30.164 
19:30	28.8	28.8	28.8	67	19.2	0	0	---	0.00	30.175 
19:35	28.5	28.5	28.5	68	19.3	0	0	---	0.00	30.175 
19:40	28.4	28.4	28.4	68	19.2	0	0	---	0.00	30.175 
19:45	28.1	28.1	28.1	69	19.3	0	0	---	0.00	30.179 
19:50	27.8	27.8	27.8	69	19.0	0	0	---	0.00	30.179 
19:55	27.6	27.6	27.6	69	18.8	0	0	---	0.00	30.179 
20:00	27.3	27.3	27.3	70	18.8	0	0	---	0.00	30.181 
20:05	27.0	27.0	27.0	71	18.9	0	0	---	0.00	30.181 
20:10	26.9	26.9	26.9	71	18.8	0	0	---	0.00	30.181 
20:15	26.6	26.6	26.6	72	18.8	0	0	---	0.00	30.180 
20:20	26.4	26.4	26.4	73	18.9	0	0	---	0.00	30.180 
20:25	26.3	26.3	26.3	73	18.8	0	0	---	0.00	30.180 
20:30	26.0	26.0	26.0	74	18.9	0	0	---	0.00	30.179 
20:35	25.8	25.8	25.8	74	18.7	0	0	---	0.00	30.179 
20:40	25.7	25.7	25.7	75	18.9	0	0	---	0.00	30.179 
20:45	25.6	25.6	25.6	75	18.8	0	0	---	0.00	30.177 
20:50	25.4	25.4	25.4	76	18.9	0	0	---	0.00	30.177 
20:55	25.3	25.3	25.3	76	18.8	0	0	---	0.00	30.177 
21:00	25.0	25.0	25.0	76	18.5	0	0	---	0.00	30.180 
21:05	24.8	24.8	24.8	77	18.6	0	0	---	0.00	30.180 
21:10	24.7	24.7	24.7	77	18.5	0	0	---	0.00	30.180 
21:15	24.5	24.5	24.5	77	18.3	0	0	---	0.00	30.186 
21:20	24.4	24.4	24.4	78	18.5	0	0	---	0.00	30.186 
21:25	24.2	24.2	24.2	78	18.3	0	0	---	0.00	30.186 
21:30	24.2	24.2	24.2	79	18.6	0	0	---	0.00	30.191 
21:35	24.1	24.1	24.1	79	18.5	0	0	---	0.00	30.191 
21:40	24.1	24.1	24.1	79	18.5	0	0	---	0.00	30.191 
21:45	23.9	23.9	23.9	80	18.6	0	0	---	0.00	30.207 
21:50	23.9	23.9	23.9	80	18.6	0	0	---	0.00	30.207 
21:55	23.8	23.8	23.8	80	18.5	0	0	---	0.00	30.207 
22:00	23.8	23.8	23.8	80	18.5	0	0	---	0.00	30.203 
22:05	23.6	23.6	23.6	80	18.4	0	0	---	0.00	30.203 
22:10	23.6	23.6	23.6	81	18.6	0	0	---	0.00	30.203 
22:15	23.6	23.6	23.6	80	18.4	0	0	---	0.00	30.208 
22:20	23.6	23.6	23.6	80	18.4	0	0	---	0.00	30.208 
22:25	23.6	23.6	23.6	81	18.6	0	0	---	0.00	30.208 
22:30	23.6	23.6	23.6	80	18.4	0	0	---	0.00	30.209 
22:35	23.6	23.6	23.6	80	18.4	0	0	---	0.00	30.209 
22:40	23.6	23.6	23.6	80	18.4	0	0	---	0.00	30.209 
22:45	23.5	23.5	23.5	80	18.3	0	0	---	0.00	30.219 
22:50	23.5	23.5	23.5	80	18.3	0	0	---	0.00	30.219 
22:55	23.5	23.5	23.5	80	18.3	0	0	---	0.00	30.219 
23:00	23.2	23.2	23.2	80	18.0	0	0	---	0.00	30.220 
23:05	23.2	23.2	23.2	80	18.0	0	0	---	0.00	30.220 
23:10	23.0	23.0	23.0	80	17.8	0	0	---	0.00	30.220 
23:15	23.0	23.0	23.0	80	17.8	0	0	---	0.00	30.221 
23:20	23.2	23.2	23.2	81	18.3	0	0	---	0.00	30.221 
23:25	23.2	23.2	23.2	81	18.3	0	0	---	0.00	30.221 
23:30	23.0	23.0	23.0	81	18.1	0	0	---	0.00	30.224 
23:35	23.0	23.0	23.0	81	18.1	0	0	---	0.00	30.224 
23:40	23.0	23.0	23.0	81	18.1	0	0	---	0.00	30.224 
23:45	22.9	22.9	22.9	81	18.0	0	0	---	0.00	30.225 
23:50	22.9	22.9	22.9	81	18.0	0	0	---	0.00	30.225 
23:55	22.9	22.9	22.9	81	18.0	0	0	---	0.00	30.225 

CoCoRaHS
IN-AL-39
A2 Web Hosting
Creative Commons License
GoDaddy
search engine by freefind advanced

loaded 2018-11-14 04:52:12 • last modified 2010-11-18 10:43:29
Privacy PolicyDisclaimer
• wx.awcolley.com is powered by PmWiki v.2002016 •
• all content (unless otherwise noted) © 2018 A W Colley